Time,TemperatureF,DewpointF,PressureIn,WindDirection,WindDirectionDegrees,WindSpeedMPH,WindSpeedGustMPH,Humidity,HourlyPrecipIn,Conditions,Clouds,dailyrainin,SoftwareType,DateUTC
2013-01-16 00:02:00,1.0,-3.0,30.13,South,180,3.0,4.0,82,0.00,,,0.00,,2013-01-16 07:02:00,
2013-01-16 00:11:00,1.0,-3.0,30.13,South,180,3.0,4.0,82,0.00,,,0.00,,2013-01-16 07:11:00,
2013-01-16 00:22:00,2.0,-2.0,30.13,South,180,2.0,3.0,81,0.00,,,0.00,,2013-01-16 07:22:00,
2013-01-16 00:32:00,2.0,-2.0,30.13,South,180,2.0,3.0,82,0.00,,,0.00,,2013-01-16 07:32:00,
2013-01-16 00:42:00,2.0,-2.0,30.13,South,180,2.0,3.0,82,0.00,,,0.00,,2013-01-16 07:42:00,
2013-01-16 00:52:00,1.0,-4.0,30.13,SE,135,3.0,4.0,77,0.00,,,0.00,,2013-01-16 07:52:00,
2013-01-16 01:02:00,2.0,-4.0,30.13,SSE,157,2.0,4.0,77,0.00,,,0.00,,2013-01-16 08:02:00,
2013-01-16 01:11:00,2.0,-4.0,30.13,SSE,157,2.0,4.0,77,0.00,,,0.00,,2013-01-16 08:11:00,
2013-01-16 01:22:00,0.0,-6.0,30.12,SSE,157,3.0,4.0,76,0.00,,,0.00,,2013-01-16 08:22:00,
2013-01-16 01:32:00,1.0,-5.0,30.11,SSE,157,3.0,4.0,76,0.00,,,0.00,,2013-01-16 08:32:00,
2013-01-16 01:42:00,1.0,-5.0,30.11,SSE,157,3.0,4.0,76,0.00,,,0.00,,2013-01-16 08:42:00,
2013-01-16 01:52:00,0.0,-6.0,30.11,SSE,157,2.0,3.0,76,0.00,,,0.00,,2013-01-16 08:52:00,
2013-01-16 02:02:00,-1.0,-6.0,30.12,South,180,2.0,3.0,78,0.00,,,0.00,,2013-01-16 09:02:00,
2013-01-16 02:11:00,-1.0,-6.0,30.12,South,180,2.0,3.0,78,0.00,,,0.00,,2013-01-16 09:11:00,
2013-01-16 02:22:00,-1.0,-6.0,30.11,SSE,157,3.0,4.0,79,0.00,,,0.00,,2013-01-16 09:22:00,
2013-01-16 02:32:00,-1.0,-6.0,30.11,SSE,157,2.0,2.0,80,0.00,,,0.00,,2013-01-16 09:32:00,
2013-01-16 02:42:00,-1.0,-6.0,30.11,SSE,157,2.0,2.0,80,0.00,,,0.00,,2013-01-16 09:42:00,
2013-01-16 02:52:00,-1.0,-6.0,30.11,SSE,157,1.0,2.0,78,0.00,,,0.00,,2013-01-16 09:52:00,
2013-01-16 03:02:00,0.0,-5.0,30.10,SE,135,2.0,2.0,79,0.00,,,0.00,,2013-01-16 10:02:00,
2013-01-16 03:11:00,0.0,-5.0,30.10,SE,135,2.0,2.0,79,0.00,,,0.00,,2013-01-16 10:11:00,
2013-01-16 03:22:00,1.0,-5.0,30.11,SE,135,0.0,2.0,76,0.00,,,0.00,,2013-01-16 10:22:00,
2013-01-16 03:32:00,0.0,-6.0,30.10,SE,135,3.0,4.0,76,0.00,,,0.00,,2013-01-16 10:32:00,
2013-01-16 03:42:00,0.0,-6.0,30.10,SE,135,3.0,4.0,76,0.00,,,0.00,,2013-01-16 10:42:00,
2013-01-16 03:52:00,-1.0,-6.0,30.12,South,180,2.0,2.0,77,0.00,,,0.00,,2013-01-16 10:52:00,
2013-01-16 04:02:00,-3.0,-7.0,30.10,South,180,4.0,5.0,83,0.00,,,0.00,,2013-01-16 11:02:00,
2013-01-16 04:11:00,-3.0,-7.0,30.10,South,180,4.0,5.0,83,0.00,,,0.00,,2013-01-16 11:11:00,
2013-01-16 04:22:00,-3.0,-7.0,30.10,South,180,3.0,4.0,82,0.00,,,0.00,,2013-01-16 11:22:00,
2013-01-16 04:32:00,-2.0,-5.0,30.10,South,180,4.0,4.0,85,0.00,,,0.00,,2013-01-16 11:32:00,
2013-01-16 04:42:00,-2.0,-5.0,30.10,South,180,4.0,4.0,85,0.00,,,0.00,,2013-01-16 11:42:00,
2013-01-16 04:52:00,0.0,-4.0,30.11,South,180,3.0,4.0,83,0.00,,,0.00,,2013-01-16 11:52:00,
2013-01-16 05:02:00,-1.0,-6.0,30.11,SE,135,2.0,2.0,79,0.00,,,0.00,,2013-01-16 12:02:00,
2013-01-16 05:12:00,-1.0,-6.0,30.11,SE,135,2.0,2.0,79,0.00,,,0.00,,2013-01-16 12:12:00,
2013-01-16 05:22:00,-2.0,-7.0,30.11,WSW,247,1.0,2.0,79,0.00,,,0.00,,2013-01-16 12:22:00,
2013-01-16 05:32:00,-2.0,-5.0,30.11,WSW,247,0.0,0.0,86,0.00,,,0.00,,2013-01-16 12:32:00,
2013-01-16 05:42:00,-2.0,-5.0,30.11,WSW,247,0.0,0.0,86,0.00,,,0.00,,2013-01-16 12:42:00,
2013-01-16 05:52:00,0.0,-4.0,30.10,WSW,247,0.0,0.0,81,0.00,,,0.00,,2013-01-16 12:52:00,
2013-01-16 06:02:00,-2.0,-6.0,30.11,South,180,4.0,4.0,82,0.00,,,0.00,,2013-01-16 13:02:00,
2013-01-16 06:12:00,-2.0,-6.0,30.11,South,180,4.0,4.0,82,0.00,,,0.00,,2013-01-16 13:12:00,
2013-01-16 06:22:00,-2.0,-5.0,30.11,SSE,157,3.0,4.0,85,0.00,,,0.00,,2013-01-16 13:22:00,
2013-01-16 06:32:00,-1.0,-5.0,30.12,SSE,157,3.0,4.0,84,0.00,,,0.00,,2013-01-16 13:32:00,
2013-01-16 06:42:00,-1.0,-5.0,30.12,SSE,157,3.0,4.0,84,0.00,,,0.00,,2013-01-16 13:42:00,
2013-01-16 06:52:00,0.0,-4.0,30.11,SSE,157,2.0,3.0,81,0.00,,,0.00,,2013-01-16 13:52:00,
2013-01-16 07:02:00,-2.0,-6.0,30.12,SSE,157,4.0,5.0,81,0.00,,,0.00,,2013-01-16 14:02:00,
2013-01-16 07:11:00,-2.0,-6.0,30.12,SSE,157,4.0,5.0,81,0.00,,,0.00,,2013-01-16 14:11:00,
2013-01-16 07:22:00,-3.0,-7.0,30.12,South,180,6.0,6.0,82,0.00,,,0.00,,2013-01-16 14:22:00,
2013-01-16 07:32:00,-4.0,-7.0,30.12,South,180,4.0,5.0,87,0.00,,,0.00,,2013-01-16 14:32:00,
2013-01-16 07:42:00,-4.0,-7.0,30.12,South,180,4.0,5.0,87,0.00,,,0.00,,2013-01-16 14:42:00,
2013-01-16 07:52:00,-3.0,-6.0,30.12,South,180,4.0,4.0,86,0.00,,,0.00,,2013-01-16 14:52:00,
2013-01-16 08:02:00,0.0,-3.0,30.12,South,180,2.0,2.0,85,0.00,,,0.00,,2013-01-16 15:02:00,
2013-01-16 08:11:00,0.0,-3.0,30.12,South,180,2.0,2.0,85,0.00,,,0.00,,2013-01-16 15:11:00,
2013-01-16 08:22:00,4.0,-3.0,30.15,South,180,0.0,0.0,73,0.00,,,0.00,,2013-01-16 15:22:00,
2013-01-16 08:32:00,3.0,-4.0,30.16,East,90,3.0,4.0,73,0.00,,,0.00,,2013-01-16 15:32:00,
2013-01-16 08:42:00,3.0,-4.0,30.16,East,90,3.0,4.0,73,0.00,,,0.00,,2013-01-16 15:42:00,
2013-01-16 08:52:00,2.0,-4.0,30.16,East,90,2.0,3.0,77,0.00,,,0.00,,2013-01-16 15:52:00,
2013-01-16 09:02:00,4.0,-2.0,30.16,ESE,112,2.0,3.0,75,0.00,,,0.00,,2013-01-16 16:02:00,
2013-01-16 09:11:00,4.0,-2.0,30.16,ESE,112,2.0,3.0,75,0.00,,,0.00,,2013-01-16 16:11:00,
2013-01-16 09:22:00,6.0,-2.0,30.18,SSE,157,2.0,3.0,69,0.00,,,0.00,,2013-01-16 16:22:00,
2013-01-16 09:32:00,8.0,-1.0,30.20,SSE,157,2.0,3.0,65,0.00,,,0.00,,2013-01-16 16:32:00,
2013-01-16 09:42:00,8.0,-1.0,30.20,SSE,157,2.0,3.0,65,0.00,,,0.00,,2013-01-16 16:42:00,
2013-01-16 09:52:00,10.0,-1.0,30.21,SSE,157,2.0,2.0,61,0.00,,,0.00,,2013-01-16 16:52:00,
2013-01-16 10:02:00,11.0,-1.0,30.21,SSW,202,3.0,4.0,58,0.00,,,0.00,,2013-01-16 17:02:00,
2013-01-16 10:22:00,11.0,0.0,30.21,SW,225,2.0,4.0,61,0.00,,,0.00,,2013-01-16 17:22:00,
2013-01-16 10:32:00,13.0,1.0,30.22,SW,225,1.0,2.0,58,0.00,,,0.00,,2013-01-16 17:32:00,
2013-01-16 10:42:00,13.0,1.0,30.22,SW,225,1.0,2.0,58,0.00,,,0.00,,2013-01-16 17:42:00,
2013-01-16 10:52:00,16.0,2.0,30.23,SW,225,1.0,1.0,52,0.00,,,0.00,,2013-01-16 17:52:00,
2013-01-16 11:02:00,17.0,2.0,30.23,SW,225,0.0,1.0,51,0.00,,,0.00,,2013-01-16 18:02:00,
2013-01-16 11:12:00,17.0,2.0,30.23,North,360,2.0,4.0,52,0.00,,,0.00,,2013-01-16 18:12:00,
2013-01-16 11:22:00,17.0,2.0,30.23,North,360,2.0,4.0,52,0.00,,,0.00,,2013-01-16 18:22:00,
2013-01-16 11:32:00,17.0,2.0,30.22,NW,315,1.0,2.0,52,0.00,,,0.00,,2013-01-16 18:32:00,
2013-01-16 11:42:00,17.0,2.0,30.22,NW,315,1.0,2.0,52,0.00,,,0.00,,2013-01-16 18:42:00,
2013-01-16 11:52:00,17.0,2.0,30.22,North,360,2.0,2.0,50,0.00,,,0.00,,2013-01-16 18:52:00,
2013-01-16 12:02:00,20.0,4.0,30.21,North,360,0.0,2.0,48,0.00,,,0.00,,2013-01-16 19:02:00,
2013-01-16 12:12:00,20.0,4.0,30.21,North,360,0.0,2.0,48,0.00,,,0.00,,2013-01-16 19:12:00,
2013-01-16 12:22:00,21.0,4.0,30.20,North,360,2.0,2.0,47,0.00,,,0.00,,2013-01-16 19:22:00,
2013-01-16 12:32:00,20.0,4.0,30.20,ENE,67,2.0,3.0,50,0.00,,,0.00,,2013-01-16 19:32:00,
2013-01-16 12:42:00,20.0,4.0,30.20,ENE,67,2.0,3.0,50,0.00,,,0.00,,2013-01-16 19:42:00,
2013-01-16 12:52:00,20.0,4.0,30.20,NE,45,2.0,2.0,50,0.00,,,0.00,,2013-01-16 19:52:00,
2013-01-16 13:02:00,21.0,5.0,30.20,North,360,0.0,0.0,49,0.00,,,0.00,,2013-01-16 20:02:00,
2013-01-16 13:11:00,21.0,5.0,30.20,North,360,0.0,0.0,49,0.00,,,0.00,,2013-01-16 20:11:00,
2013-01-16 13:22:00,23.0,6.0,30.19,North,360,0.0,0.0,47,0.00,,,0.00,,2013-01-16 20:22:00,
2013-01-16 13:32:00,24.0,7.0,30.19,NNW,337,0.0,0.0,47,0.00,,,0.00,,2013-01-16 20:32:00,
2013-01-16 13:42:00,24.0,7.0,30.19,NNW,337,0.0,0.0,47,0.00,,,0.00,,2013-01-16 20:42:00,
2013-01-16 13:52:00,23.0,5.0,30.19,SW,225,2.0,3.0,46,0.00,,,0.00,,2013-01-16 20:52:00,
2013-01-16 14:02:00,24.0,7.0,30.19,West,270,1.0,2.0,48,0.00,,,0.00,,2013-01-16 21:02:00,
2013-01-16 14:12:00,24.0,7.0,30.19,West,270,1.0,2.0,48,0.00,,,0.00,,2013-01-16 21:12:00,
2013-01-16 14:22:00,25.0,8.0,30.19,NW,315,0.0,0.0,47,0.00,,,0.00,,2013-01-16 21:22:00,
2013-01-16 14:32:00,25.0,6.0,30.20,North,360,1.0,2.0,44,0.00,,,0.00,,2013-01-16 21:32:00,
2013-01-16 14:42:00,25.0,6.0,30.20,North,360,1.0,2.0,44,0.00,,,0.00,,2013-01-16 21:42:00,
2013-01-16 14:52:00,24.0,7.0,30.20,North,360,2.0,3.0,47,0.00,,,0.00,,2013-01-16 21:52:00,
2013-01-16 15:02:00,23.0,6.0,30.20,North,360,2.0,2.0,48,0.00,,,0.00,,2013-01-16 22:02:00,
2013-01-16 15:11:00,23.0,6.0,30.20,North,360,2.0,2.0,48,0.00,,,0.00,,2013-01-16 22:11:00,
2013-01-16 15:22:00,24.0,7.0,30.20,North,360,2.0,2.0,48,0.00,,,0.00,,2013-01-16 22:22:00,
2013-01-16 15:32:00,24.0,7.0,30.20,North,360,1.0,2.0,47,0.00,,,0.00,,2013-01-16 22:32:00,
2013-01-16 15:42:00,24.0,7.0,30.20,North,360,1.0,2.0,47,0.00,,,0.00,,2013-01-16 22:42:00,
2013-01-16 15:52:00,24.0,7.0,30.20,North,360,2.0,2.0,48,0.00,,,0.00,,2013-01-16 22:52:00,
2013-01-16 16:02:00,25.0,8.0,30.21,North,360,1.0,2.0,48,0.00,,,0.00,,2013-01-16 23:02:00,
2013-01-16 16:11:00,23.0,7.0,30.21,NNW,337,2.0,3.0,50,0.00,,,0.00,,2013-01-16 23:11:00,
2013-01-16 16:22:00,23.0,7.0,30.21,NNW,337,2.0,3.0,50,0.00,,,0.00,,2013-01-16 23:22:00,
2013-01-16 16:32:00,23.0,8.0,30.20,NNW,337,2.0,2.0,53,0.00,,,0.00,,2013-01-16 23:32:00,
2013-01-16 16:42:00,23.0,8.0,30.20,NNW,337,2.0,2.0,53,0.00,,,0.00,,2013-01-16 23:42:00,
2013-01-16 16:52:00,22.0,8.0,30.20,NW,315,2.0,3.0,55,0.00,,,0.00,,2013-01-16 23:52:00,
2013-01-16 17:02:00,21.0,7.0,30.19,NW,315,0.0,0.0,55,0.00,,,0.00,,2013-01-17 00:02:00,
2013-01-16 17:11:00,21.0,7.0,30.19,NW,315,0.0,0.0,55,0.00,,,0.00,,2013-01-17 00:11:00,
2013-01-16 17:22:00,21.0,7.0,30.19,NW,315,0.0,0.0,55,0.00,,,0.00,,2013-01-17 00:22:00,
2013-01-16 17:32:00,19.0,7.0,30.18,NW,315,1.0,1.0,58,0.00,,,0.00,,2013-01-17 00:32:00,
2013-01-16 17:42:00,19.0,7.0,30.18,NW,315,1.0,1.0,58,0.00,,,0.00,,2013-01-17 00:42:00,
2013-01-16 17:52:00,18.0,7.0,30.16,NW,315,1.0,1.0,61,0.00,,,0.00,,2013-01-17 00:52:00,
2013-01-16 18:01:00,18.0,8.0,30.16,NW,315,0.0,0.0,63,0.00,,,0.00,,2013-01-17 01:01:00,
2013-01-16 18:11:00,18.0,8.0,30.16,NW,315,0.0,0.0,63,0.00,,,0.00,,2013-01-17 01:11:00,
2013-01-16 18:22:00,15.0,5.0,30.16,NW,315,2.0,2.0,65,0.00,,,0.00,,2013-01-17 01:22:00,
2013-01-16 18:32:00,13.0,5.0,30.16,South,180,3.0,4.0,71,0.00,,,0.00,,2013-01-17 01:32:00,
2013-01-16 18:42:00,13.0,5.0,30.16,South,180,3.0,4.0,71,0.00,,,0.00,,2013-01-17 01:42:00,
2013-01-16 19:01:00,11.0,5.0,30.16,South,180,2.0,3.0,75,0.00,,,0.00,,2013-01-17 02:01:00,
2013-01-16 19:12:00,11.0,5.0,30.16,South,180,2.0,3.0,75,0.00,,,0.00,,2013-01-17 02:12:00,
2013-01-16 19:22:00,11.0,4.0,30.16,South,180,3.0,4.0,74,0.00,,,0.00,,2013-01-17 02:22:00,
2013-01-16 19:32:00,12.0,5.0,30.16,South,180,2.0,2.0,73,0.00,,,0.00,,2013-01-17 02:32:00,
2013-01-16 19:42:00,12.0,5.0,30.16,South,180,2.0,2.0,73,0.00,,,0.00,,2013-01-17 02:42:00,
2013-01-16 19:52:00,12.0,5.0,30.16,South,180,2.0,2.0,73,0.00,,,0.00,,2013-01-17 02:52:00,
2013-01-16 20:02:00,13.0,5.0,30.16,South,180,2.0,2.0,70,0.00,,,0.00,,2013-01-17 03:02:00,
2013-01-16 20:11:00,13.0,5.0,30.16,South,180,2.0,2.0,70,0.00,,,0.00,,2013-01-17 03:11:00,
2013-01-16 20:22:00,9.0,2.0,30.16,South,180,4.0,5.0,73,0.00,,,0.00,,2013-01-17 03:22:00,
2013-01-16 20:32:00,7.0,2.0,30.18,South,180,4.0,4.0,79,0.00,,,0.00,,2013-01-17 03:32:00,
2013-01-16 20:42:00,7.0,2.0,30.18,South,180,4.0,4.0,79,0.00,,,0.00,,2013-01-17 03:42:00,
2013-01-16 20:52:00,7.0,2.0,30.18,South,180,4.0,5.0,79,0.00,,,0.00,,2013-01-17 03:52:00,
2013-01-16 21:02:00,8.0,3.0,30.18,South,180,4.0,5.0,80,0.00,,,0.00,,2013-01-17 04:02:00,
2013-01-16 21:11:00,8.0,3.0,30.18,SSE,157,4.0,4.0,78,0.00,,,0.00,,2013-01-17 04:11:00,
2013-01-16 21:22:00,8.0,3.0,30.18,SSE,157,4.0,4.0,78,0.00,,,0.00,,2013-01-17 04:22:00,
2013-01-16 21:32:00,9.0,4.0,30.18,SSE,157,4.0,5.0,78,0.00,,,0.00,,2013-01-17 04:32:00,
2013-01-16 21:42:00,9.0,4.0,30.18,SSE,157,4.0,5.0,78,0.00,,,0.00,,2013-01-17 04:42:00,
2013-01-16 21:52:00,8.0,3.0,30.18,SSE,157,4.0,5.0,79,0.00,,,0.00,,2013-01-17 04:52:00,
2013-01-16 22:02:00,8.0,3.0,30.18,SSE,157,4.0,5.0,80,0.00,,,0.00,,2013-01-17 05:02:00,
2013-01-16 22:12:00,8.0,3.0,30.18,SSE,157,4.0,5.0,80,0.00,,,0.00,,2013-01-17 05:12:00,
2013-01-16 22:22:00,9.0,4.0,30.18,SSE,157,4.0,5.0,80,0.00,,,0.00,,2013-01-17 05:22:00,
2013-01-16 22:32:00,9.0,3.0,30.18,SSE,157,4.0,4.0,77,0.00,,,0.00,,2013-01-17 05:32:00,
2013-01-16 22:42:00,9.0,3.0,30.18,SSE,157,4.0,4.0,77,0.00,,,0.00,,2013-01-17 05:42:00,
2013-01-16 22:52:00,9.0,4.0,30.18,SSE,157,4.0,4.0,80,0.00,,,0.00,,2013-01-17 05:52:00,
2013-01-16 23:02:00,9.0,4.0,30.19,SSE,157,4.0,4.0,80,0.00,,,0.00,,2013-01-17 06:02:00,
2013-01-16 23:11:00,8.0,3.0,30.18,SSE,157,4.0,5.0,80,0.00,,,0.00,,2013-01-17 06:11:00,
2013-01-16 23:22:00,8.0,3.0,30.18,SSE,157,4.0,5.0,80,0.00,,,0.00,,2013-01-17 06:22:00,
2013-01-16 23:32:00,8.0,4.0,30.18,SSE,157,4.0,5.0,83,0.00,,,0.00,,2013-01-17 06:32:00,
2013-01-16 23:42:00,8.0,4.0,30.18,SSE,157,4.0,5.0,83,0.00,,,0.00,,2013-01-17 06:42:00,
2013-01-16 23:52:00,9.0,4.0,30.19,SSE,157,4.0,4.0,81,0.00,,,0.00,,2013-01-17 06:52:00,